sensor_id;sensor_type;location;lat;lon;timestamp;temperature;humidity
4699;DHT22;33708;49.466;11.176;2024-03-22T00:01:09;5.80;99.90
4699;DHT22;33708;49.466;11.176;2024-03-22T00:03:35;7.80;99.90
4699;DHT22;33708;49.466;11.176;2024-03-22T00:06:00;6.00;99.90
4699;DHT22;33708;49.466;11.176;2024-03-22T00:08:26;6.10;99.90
4699;DHT22;33708;49.466;11.176;2024-03-22T00:10:51;5.30;99.90
4699;DHT22;33708;49.466;11.176;2024-03-22T00:13:17;6.10;99.90
4699;DHT22;33708;49.466;11.176;2024-03-22T00:15:43;7.60;99.90
4699;DHT22;33708;49.466;11.176;2024-03-22T00:18:10;5.80;99.90
4699;DHT22;33708;49.466;11.176;2024-03-22T00:20:35;6.90;99.90
4699;DHT22;33708;49.466;11.176;2024-03-22T00:23:01;6.80;99.90
4699;DHT22;33708;49.466;11.176;2024-03-22T00:25:26;7.40;99.90
4699;DHT22;33708;49.466;11.176;2024-03-22T00:27:52;6.10;99.90
4699;DHT22;33708;49.466;11.176;2024-03-22T00:30:18;6.70;99.90
4699;DHT22;33708;49.466;11.176;2024-03-22T00:32:43;7.20;99.90
4699;DHT22;33708;49.466;11.176;2024-03-22T00:35:10;5.40;99.90
4699;DHT22;33708;49.466;11.176;2024-03-22T00:37:36;6.30;99.90
4699;DHT22;33708;49.466;11.176;2024-03-22T00:40:02;6.40;99.90
4699;DHT22;33708;49.466;11.176;2024-03-22T00:42:27;4.80;99.90
4699;DHT22;33708;49.466;11.176;2024-03-22T00:44:53;6.60;99.90
4699;DHT22;33708;49.466;11.176;2024-03-22T00:47:20;4.60;99.90
4699;DHT22;33708;49.466;11.176;2024-03-22T00:49:46;4.70;99.90
4699;DHT22;33708;49.466;11.176;2024-03-22T00:52:11;4.60;99.90
4699;DHT22;33708;49.466;11.176;2024-03-22T00:54:37;6.70;99.90
4699;DHT22;33708;49.466;11.176;2024-03-22T00:57:04;4.70;99.90
4699;DHT22;33708;49.466;11.176;2024-03-22T00:59:30;6.20;99.90
4699;DHT22;33708;49.466;11.176;2024-03-22T01:01:56;4.50;99.90
4699;DHT22;33708;49.466;11.176;2024-03-22T01:04:21;4.00;99.90
4699;DHT22;33708;49.466;11.176;2024-03-22T01:06:47;6.20;99.90
4699;DHT22;33708;49.466;11.176;2024-03-22T01:09:12;4.10;99.90
4699;DHT22;33708;49.466;11.176;2024-03-22T01:11:38;6.00;99.90
4699;DHT22;33708;49.466;11.176;2024-03-22T01:14:03;4.00;99.90
4699;DHT22;33708;49.466;11.176;2024-03-22T01:16:29;5.50;99.90
4699;DHT22;33708;49.466;11.176;2024-03-22T01:18:54;5.10;99.90
4699;DHT22;33708;49.466;11.176;2024-03-22T01:21:20;4.00;99.90
4699;DHT22;33708;49.466;11.176;2024-03-22T01:23:53;3.90;99.90
4699;DHT22;33708;49.466;11.176;2024-03-22T01:26:19;3.90;99.90
4699;DHT22;33708;49.466;11.176;2024-03-22T01:28:45;3.80;99.90
4699;DHT22;33708;49.466;11.176;2024-03-22T01:31:11;5.50;99.90
4699;DHT22;33708;49.466;11.176;2024-03-22T01:33:37;3.70;99.90
4699;DHT22;33708;49.466;11.176;2024-03-22T01:36:02;5.20;99.90
4699;DHT22;33708;49.466;11.176;2024-03-22T01:38:31;3.70;99.90
4699;DHT22;33708;49.466;11.176;2024-03-22T01:40:56;3.70;99.90
4699;DHT22;33708;49.466;11.176;2024-03-22T01:43:22;3.70;99.90
4699;DHT22;33708;49.466;11.176;2024-03-22T01:45:47;4.90;99.90
4699;DHT22;33708;49.466;11.176;2024-03-22T01:48:13;3.60;99.90
4699;DHT22;33708;49.466;11.176;2024-03-22T01:50:39;3.90;99.90
4699;DHT22;33708;49.466;11.176;2024-03-22T01:53:05;5.00;99.90
4699;DHT22;33708;49.466;11.176;2024-03-22T01:55:31;3.70;99.90
4699;DHT22;33708;49.466;11.176;2024-03-22T01:57:56;5.20;99.90
4699;DHT22;33708;49.466;11.176;2024-03-22T02:00:22;4.50;99.90
4699;DHT22;33708;49.466;11.176;2024-03-22T02:02:48;3.50;99.90
4699;DHT22;33708;49.466;11.176;2024-03-22T02:05:17;5.40;99.90
4699;DHT22;33708;49.466;11.176;2024-03-22T02:07:47;3.40;99.90
4699;DHT22;33708;49.466;11.176;2024-03-22T02:10:13;3.20;99.90
4699;DHT22;33708;49.466;11.176;2024-03-22T02:12:39;4.50;99.90
4699;DHT22;33708;49.466;11.176;2024-03-22T02:15:06;5.10;99.90
4699;DHT22;33708;49.466;11.176;2024-03-22T02:17:32;3.20;99.90
4699;DHT22;33708;49.466;11.176;2024-03-22T02:19:59;1.60;99.90
4699;DHT22;33708;49.466;11.176;2024-03-22T02:22:25;4.40;99.90
4699;DHT22;33708;49.466;11.176;2024-03-22T02:24:51;2.90;99.90
4699;DHT22;33708;49.466;11.176;2024-03-22T02:27:16;3.60;99.90
4699;DHT22;33708;49.466;11.176;2024-03-22T02:29:42;4.80;99.90
4699;DHT22;33708;49.466;11.176;2024-03-22T02:32:08;3.80;99.90
4699;DHT22;33708;49.466;11.176;2024-03-22T02:34:33;4.30;99.90
4699;DHT22;33708;49.466;11.176;2024-03-22T02:36:59;3.20;99.90
4699;DHT22;33708;49.466;11.176;2024-03-22T02:39:24;3.90;99.90
4699;DHT22;33708;49.466;11.176;2024-03-22T02:41:51;2.80;99.90
4699;DHT22;33708;49.466;11.176;2024-03-22T02:44:16;2.80;99.90
4699;DHT22;33708;49.466;11.176;2024-03-22T02:46:42;2.80;99.90
4699;DHT22;33708;49.466;11.176;2024-03-22T02:49:07;2.90;99.90
4699;DHT22;33708;49.466;11.176;2024-03-22T02:51:33;3.90;99.90
4699;DHT22;33708;49.466;11.176;2024-03-22T02:53:59;4.70;99.90
4699;DHT22;33708;49.466;11.176;2024-03-22T02:56:24;4.10;99.90
4699;DHT22;33708;49.466;11.176;2024-03-22T02:58:50;3.10;99.90
4699;DHT22;33708;49.466;11.176;2024-03-22T03:01:15;3.10;99.90
4699;DHT22;33708;49.466;11.176;2024-03-22T03:03:41;3.20;99.90
4699;DHT22;33708;49.466;11.176;2024-03-22T03:06:06;3.10;99.90
4699;DHT22;33708;49.466;11.176;2024-03-22T03:08:33;4.30;99.90
4699;DHT22;33708;49.466;11.176;2024-03-22T03:10:59;3.00;99.90
4699;DHT22;33708;49.466;11.176;2024-03-22T03:13:24;3.00;99.90
4699;DHT22;33708;49.466;11.176;2024-03-22T03:15:51;1.80;99.90
4699;DHT22;33708;49.466;11.176;2024-03-22T03:18:17;2.90;99.90
4699;DHT22;33708;49.466;11.176;2024-03-22T03:20:42;1.70;99.90
4699;DHT22;33708;49.466;11.176;2024-03-22T03:23:08;2.90;99.90
4699;DHT22;33708;49.466;11.176;2024-03-22T03:25:34;2.80;99.90
4699;DHT22;33708;49.466;11.176;2024-03-22T03:27:59;3.20;99.90
4699;DHT22;33708;49.466;11.176;2024-03-22T03:30:25;2.60;99.90
4699;DHT22;33708;49.466;11.176;2024-03-22T03:32:52;3.60;99.90
4699;DHT22;33708;49.466;11.176;2024-03-22T03:35:17;2.50;99.90
4699;DHT22;33708;49.466;11.176;2024-03-22T03:37:43;2.30;99.90
4699;DHT22;33708;49.466;11.176;2024-03-22T03:40:09;2.70;99.90
4699;DHT22;33708;49.466;11.176;2024-03-22T03:42:34;2.50;99.90
4699;DHT22;33708;49.466;11.176;2024-03-22T03:45:00;3.80;99.90
4699;DHT22;33708;49.466;11.176;2024-03-22T03:47:25;3.70;99.90
4699;DHT22;33708;49.466;11.176;2024-03-22T03:49:51;4.10;99.90
4699;DHT22;33708;49.466;11.176;2024-03-22T03:52:17;2.50;99.90
4699;DHT22;33708;49.466;11.176;2024-03-22T03:54:43;2.80;99.90
4699;DHT22;33708;49.466;11.176;2024-03-22T03:57:09;2.80;99.90
4699;DHT22;33708;49.466;11.176;2024-03-22T03:59:34;4.50;99.90
4699;DHT22;33708;49.466;11.176;2024-03-22T04:02:00;2.70;99.90
4699;DHT22;33708;49.466;11.176;2024-03-22T04:04:26;3.60;99.90
4699;DHT22;33708;49.466;11.176;2024-03-22T04:06:51;2.60;99.90
4699;DHT22;33708;49.466;11.176;2024-03-22T04:09:17;4.30;99.90
4699;DHT22;33708;49.466;11.176;2024-03-22T04:11:42;3.90;99.90
4699;DHT22;33708;49.466;11.176;2024-03-22T04:14:09;3.50;99.90
4699;DHT22;33708;49.466;11.176;2024-03-22T04:16:35;3.50;99.90
4699;DHT22;33708;49.466;11.176;2024-03-22T04:19:00;4.10;99.90
4699;DHT22;33708;49.466;11.176;2024-03-22T04:21:26;2.40;99.90
4699;DHT22;33708;49.466;11.176;2024-03-22T04:23:51;2.50;99.90
4699;DHT22;33708;49.466;11.176;2024-03-22T04:26:17;2.90;99.90
4699;DHT22;33708;49.466;11.176;2024-03-22T04:28:43;4.10;99.90
4699;DHT22;33708;49.466;11.176;2024-03-22T04:31:09;2.10;99.90
4699;DHT22;33708;49.466;11.176;2024-03-22T04:33:36;2.50;99.90
4699;DHT22;33708;49.466;11.176;2024-03-22T04:36:02;2.30;99.90
4699;DHT22;33708;49.466;11.176;2024-03-22T04:38:29;2.40;99.90
4699;DHT22;33708;49.466;11.176;2024-03-22T04:40:55;2.30;99.90
4699;DHT22;33708;49.466;11.176;2024-03-22T04:43:25;2.20;99.90
4699;DHT22;33708;49.466;11.176;2024-03-22T04:45:51;2.50;99.90
4699;DHT22;33708;49.466;11.176;2024-03-22T04:48:18;2.50;99.90
4699;DHT22;33708;49.466;11.176;2024-03-22T04:50:51;3.00;99.90
4699;DHT22;33708;49.466;11.176;2024-03-22T04:53:18;5.10;99.90
4699;DHT22;33708;49.466;11.176;2024-03-22T04:55:44;2.90;99.90
4699;DHT22;33708;49.466;11.176;2024-03-22T04:58:22;2.50;99.90
4699;DHT22;33708;49.466;11.176;2024-03-22T05:00:49;2.70;99.90
4699;DHT22;33708;49.466;11.176;2024-03-22T05:03:15;2.40;99.90
4699;DHT22;33708;49.466;11.176;2024-03-22T05:05:42;2.30;99.90
4699;DHT22;33708;49.466;11.176;2024-03-22T05:08:07;2.70;99.90
4699;DHT22;33708;49.466;11.176;2024-03-22T05:10:34;2.40;99.90
4699;DHT22;33708;49.466;11.176;2024-03-22T05:13:00;2.10;99.90
4699;DHT22;33708;49.466;11.176;2024-03-22T05:15:26;3.90;99.90
4699;DHT22;33708;49.466;11.176;2024-03-22T05:17:52;2.10;99.90
4699;DHT22;33708;49.466;11.176;2024-03-22T05:20:18;2.10;99.90
4699;DHT22;33708;49.466;11.176;2024-03-22T05:22:44;4.00;99.90
4699;DHT22;33708;49.466;11.176;2024-03-22T05:25:10;2.10;99.90
4699;DHT22;33708;49.466;11.176;2024-03-22T05:27:36;2.20;99.90
4699;DHT22;33708;49.466;11.176;2024-03-22T05:30:02;2.30;99.90
4699;DHT22;33708;49.466;11.176;2024-03-22T05:32:29;2.20;99.90
4699;DHT22;33708;49.466;11.176;2024-03-22T05:34:55;2.10;99.90
4699;DHT22;33708;49.466;11.176;2024-03-22T05:37:21;2.10;99.90
4699;DHT22;33708;49.466;11.176;2024-03-22T05:39:46;2.10;99.90
4699;DHT22;33708;49.466;11.176;2024-03-22T05:42:12;2.20;99.90
4699;DHT22;33708;49.466;11.176;2024-03-22T05:44:37;2.30;99.90
4699;DHT22;33708;49.466;11.176;2024-03-22T05:47:03;2.50;99.90
4699;DHT22;33708;49.466;11.176;2024-03-22T05:49:29;2.60;99.90
4699;DHT22;33708;49.466;11.176;2024-03-22T05:51:55;2.80;99.90
4699;DHT22;33708;49.466;11.176;2024-03-22T05:54:20;3.10;99.90
4699;DHT22;33708;49.466;11.176;2024-03-22T05:56:46;3.30;99.90
4699;DHT22;33708;49.466;11.176;2024-03-22T05:59:12;3.70;99.90
4699;DHT22;33708;49.466;11.176;2024-03-22T06:01:37;3.90;99.90
4699;DHT22;33708;49.466;11.176;2024-03-22T06:04:06;4.00;99.90
4699;DHT22;33708;49.466;11.176;2024-03-22T06:06:35;4.40;99.90
4699;DHT22;33708;49.466;11.176;2024-03-22T06:09:01;4.80;99.90
4699;DHT22;33708;49.466;11.176;2024-03-22T06:11:30;4.70;99.90
4699;DHT22;33708;49.466;11.176;2024-03-22T06:13:56;4.80;99.90
4699;DHT22;33708;49.466;11.176;2024-03-22T06:16:21;5.20;99.90
4699;DHT22;33708;49.466;11.176;2024-03-22T06:18:47;5.30;99.90
4699;DHT22;33708;49.466;11.176;2024-03-22T06:21:13;5.30;99.90
4699;DHT22;33708;49.466;11.176;2024-03-22T06:23:40;5.40;99.90
4699;DHT22;33708;49.466;11.176;2024-03-22T06:26:07;5.50;99.90
4699;DHT22;33708;49.466;11.176;2024-03-22T06:28:32;5.80;99.90
4699;DHT22;33708;49.466;11.176;2024-03-22T06:30:58;5.80;99.90
4699;DHT22;33708;49.466;11.176;2024-03-22T06:33:23;6.70;99.90
4699;DHT22;33708;49.466;11.176;2024-03-22T06:35:49;7.50;99.90
4699;DHT22;33708;49.466;11.176;2024-03-22T06:38:15;8.50;99.90
4699;DHT22;33708;49.466;11.176;2024-03-22T06:40:40;9.20;99.90
4699;DHT22;33708;49.466;11.176;2024-03-22T06:43:06;10.20;99.90
4699;DHT22;33708;49.466;11.176;2024-03-22T06:45:31;10.00;91.30
4699;DHT22;33708;49.466;11.176;2024-03-22T06:47:57;9.50;80.90
4699;DHT22;33708;49.466;11.176;2024-03-22T06:50:23;9.80;80.60
4699;DHT22;33708;49.466;11.176;2024-03-22T06:52:53;9.90;80.70
4699;DHT22;33708;49.466;11.176;2024-03-22T06:55:22;9.30;68.90
4699;DHT22;33708;49.466;11.176;2024-03-22T06:57:49;9.20;67.80
4699;DHT22;33708;49.466;11.176;2024-03-22T07:00:16;9.00;63.30
4699;DHT22;33708;49.466;11.176;2024-03-22T07:02:41;9.20;67.50
4699;DHT22;33708;49.466;11.176;2024-03-22T07:05:08;9.10;67.70
4699;DHT22;33708;49.466;11.176;2024-03-22T07:07:37;8.60;63.60
4699;DHT22;33708;49.466;11.176;2024-03-22T07:10:03;8.70;66.80
4699;DHT22;33708;49.466;11.176;2024-03-22T07:12:31;8.40;64.60
4699;DHT22;33708;49.466;11.176;2024-03-22T07:14:57;8.20;62.60
4699;DHT22;33708;49.466;11.176;2024-03-22T07:17:23;8.20;65.30
4699;DHT22;33708;49.466;11.176;2024-03-22T07:19:53;8.10;70.90
4699;DHT22;33708;49.466;11.176;2024-03-22T07:22:19;8.10;74.30
4699;DHT22;33708;49.466;11.176;2024-03-22T07:24:45;8.20;79.00
4699;DHT22;33708;49.466;11.176;2024-03-22T07:27:11;8.10;77.20
4699;DHT22;33708;49.466;11.176;2024-03-22T07:29:37;8.20;82.90
4699;DHT22;33708;49.466;11.176;2024-03-22T07:32:03;8.20;87.40
4699;DHT22;33708;49.466;11.176;2024-03-22T07:34:29;8.30;90.00
4699;DHT22;33708;49.466;11.176;2024-03-22T07:36:54;8.50;91.60
4699;DHT22;33708;49.466;11.176;2024-03-22T07:39:20;8.70;94.50
4699;DHT22;33708;49.466;11.176;2024-03-22T07:41:46;8.90;96.20
4699;DHT22;33708;49.466;11.176;2024-03-22T07:44:11;9.40;99.90
4699;DHT22;33708;49.466;11.176;2024-03-22T07:46:37;9.50;98.10
4699;DHT22;33708;49.466;11.176;2024-03-22T07:49:02;9.60;96.10
4699;DHT22;33708;49.466;11.176;2024-03-22T07:51:30;9.50;94.80
4699;DHT22;33708;49.466;11.176;2024-03-22T07:53:55;8.30;93.70
4699;DHT22;33708;49.466;11.176;2024-03-22T07:56:21;9.80;97.50
4699;DHT22;33708;49.466;11.176;2024-03-22T07:58:47;10.00;97.80
4699;DHT22;33708;49.466;11.176;2024-03-22T08:01:12;10.20;99.10
4699;DHT22;33708;49.466;11.176;2024-03-22T08:03:38;10.40;99.90
4699;DHT22;33708;49.466;11.176;2024-03-22T08:06:04;10.70;99.90
4699;DHT22;33708;49.466;11.176;2024-03-22T08:08:29;10.70;98.90
4699;DHT22;33708;49.466;11.176;2024-03-22T08:10:55;11.00;99.10
4699;DHT22;33708;49.466;11.176;2024-03-22T08:13:21;10.90;98.60
4699;DHT22;33708;49.466;11.176;2024-03-22T08:15:46;11.20;99.90
4699;DHT22;33708;49.466;11.176;2024-03-22T08:18:12;11.10;99.50
4699;DHT22;33708;49.466;11.176;2024-03-22T08:20:38;10.80;97.40
4699;DHT22;33708;49.466;11.176;2024-03-22T08:23:05;10.80;96.50
4699;DHT22;33708;49.466;11.176;2024-03-22T08:25:30;11.00;97.40
4699;DHT22;33708;49.466;11.176;2024-03-22T08:27:56;11.10;97.80
4699;DHT22;33708;49.466;11.176;2024-03-22T08:30:24;13.10;99.30
4699;DHT22;33708;49.466;11.176;2024-03-22T08:32:50;11.80;99.90
4699;DHT22;33708;49.466;11.176;2024-03-22T08:35:16;12.00;99.90
4699;DHT22;33708;49.466;11.176;2024-03-22T08:37:41;12.40;99.90
4699;DHT22;33708;49.466;11.176;2024-03-22T08:40:07;14.80;99.90
4699;DHT22;33708;49.466;11.176;2024-03-22T08:42:33;14.20;99.90
4699;DHT22;33708;49.466;11.176;2024-03-22T08:44:59;14.00;97.20
4699;DHT22;33708;49.466;11.176;2024-03-22T08:47:24;14.20;94.00
4699;DHT22;33708;49.466;11.176;2024-03-22T08:49:50;13.80;91.80
4699;DHT22;33708;49.466;11.176;2024-03-22T08:52:15;14.20;95.00
4699;DHT22;33708;49.466;11.176;2024-03-22T08:54:41;14.20;93.70
4699;DHT22;33708;49.466;11.176;2024-03-22T08:57:07;14.40;94.00
4699;DHT22;33708;49.466;11.176;2024-03-22T08:59:32;15.40;97.40
4699;DHT22;33708;49.466;11.176;2024-03-22T09:01:58;17.70;99.90
4699;DHT22;33708;49.466;11.176;2024-03-22T09:04:25;20.10;99.90
4699;DHT22;33708;49.466;11.176;2024-03-22T09:06:50;21.80;67.60
4699;DHT22;33708;49.466;11.176;2024-03-22T09:09:16;22.00;78.30
4699;DHT22;33708;49.466;11.176;2024-03-22T09:11:42;21.60;59.30
4699;DHT22;33708;49.466;11.176;2024-03-22T09:14:08;21.70;50.30
4699;DHT22;33708;49.466;11.176;2024-03-22T09:16:33;21.40;53.10
4699;DHT22;33708;49.466;11.176;2024-03-22T09:18:59;22.30;42.50
4699;DHT22;33708;49.466;11.176;2024-03-22T09:21:25;22.60;37.00
4699;DHT22;33708;49.466;11.176;2024-03-22T09:23:50;23.90;51.50
4699;DHT22;33708;49.466;11.176;2024-03-22T09:26:16;25.10;33.50
4699;DHT22;33708;49.466;11.176;2024-03-22T09:28:41;25.50;26.70
4699;DHT22;33708;49.466;11.176;2024-03-22T09:31:07;24.70;19.10
4699;DHT22;33708;49.466;11.176;2024-03-22T09:33:36;24.20;12.50
4699;DHT22;33708;49.466;11.176;2024-03-22T09:36:02;24.90;23.00
4699;DHT22;33708;49.466;11.176;2024-03-22T09:38:28;24.90;7.50
4699;DHT22;33708;49.466;11.176;2024-03-22T09:40:54;23.90;2.00
4699;DHT22;33708;49.466;11.176;2024-03-22T09:43:23;22.10;1.00
4699;DHT22;33708;49.466;11.176;2024-03-22T09:45:49;20.10;1.00
4699;DHT22;33708;49.466;11.176;2024-03-22T09:48:18;19.10;1.00
4699;DHT22;33708;49.466;11.176;2024-03-22T09:50:46;18.30;1.00
4699;DHT22;33708;49.466;11.176;2024-03-22T09:53:13;17.80;1.00
4699;DHT22;33708;49.466;11.176;2024-03-22T09:55:39;17.30;1.00
4699;DHT22;33708;49.466;11.176;2024-03-22T09:58:09;16.80;1.00
4699;DHT22;33708;49.466;11.176;2024-03-22T10:00:35;16.60;1.00
4699;DHT22;33708;49.466;11.176;2024-03-22T10:03:01;16.50;1.00
4699;DHT22;33708;49.466;11.176;2024-03-22T10:05:29;16.70;1.00
4699;DHT22;33708;49.466;11.176;2024-03-22T10:07:55;16.60;1.00
4699;DHT22;33708;49.466;11.176;2024-03-22T10:10:20;17.00;1.00
4699;DHT22;33708;49.466;11.176;2024-03-22T10:12:47;17.30;1.00
4699;DHT22;33708;49.466;11.176;2024-03-22T10:15:13;17.10;1.00
4699;DHT22;33708;49.466;11.176;2024-03-22T10:17:39;17.30;1.00
4699;DHT22;33708;49.466;11.176;2024-03-22T10:20:05;17.30;1.00
4699;DHT22;33708;49.466;11.176;2024-03-22T10:22:58;17.40;1.00
4699;DHT22;33708;49.466;11.176;2024-03-22T10:25:27;18.00;1.00
4699;DHT22;33708;49.466;11.176;2024-03-22T10:27:56;17.90;1.00
4699;DHT22;33708;49.466;11.176;2024-03-22T10:30:24;18.10;1.00
4699;DHT22;33708;49.466;11.176;2024-03-22T10:32:50;17.90;1.00
4699;DHT22;33708;49.466;11.176;2024-03-22T10:35:16;18.20;1.00
4699;DHT22;33708;49.466;11.176;2024-03-22T10:37:42;18.20;1.00
4699;DHT22;33708;49.466;11.176;2024-03-22T10:40:09;18.40;1.00
4699;DHT22;33708;49.466;11.176;2024-03-22T10:42:41;18.70;1.00
4699;DHT22;33708;49.466;11.176;2024-03-22T10:45:10;19.10;1.00
4699;DHT22;33708;49.466;11.176;2024-03-22T10:47:39;19.20;1.00
4699;DHT22;33708;49.466;11.176;2024-03-22T10:50:10;19.40;1.00
4699;DHT22;33708;49.466;11.176;2024-03-22T10:52:52;19.50;1.00
4699;DHT22;33708;49.466;11.176;2024-03-22T10:55:27;19.70;1.00
4699;DHT22;33708;49.466;11.176;2024-03-22T10:57:56;19.50;1.00
4699;DHT22;33708;49.466;11.176;2024-03-22T11:00:32;20.20;1.00
4699;DHT22;33708;49.466;11.176;2024-03-22T11:02:58;20.60;1.00
4699;DHT22;33708;49.466;11.176;2024-03-22T11:05:26;20.60;1.00
4699;DHT22;33708;49.466;11.176;2024-03-22T11:08:01;20.90;1.00
4699;DHT22;33708;49.466;11.176;2024-03-22T11:10:30;20.40;1.00
4699;DHT22;33708;49.466;11.176;2024-03-22T11:13:01;20.90;1.00
4699;DHT22;33708;49.466;11.176;2024-03-22T11:15:28;20.90;1.00
4699;DHT22;33708;49.466;11.176;2024-03-22T11:17:54;21.00;1.00
4699;DHT22;33708;49.466;11.176;2024-03-22T11:20:20;21.00;1.00
4699;DHT22;33708;49.466;11.176;2024-03-22T11:22:45;20.80;1.00
4699;DHT22;33708;49.466;11.176;2024-03-22T11:25:11;20.90;1.00
4699;DHT22;33708;49.466;11.176;2024-03-22T11:27:36;20.60;1.00
4699;DHT22;33708;49.466;11.176;2024-03-22T11:30:02;20.50;1.00
4699;DHT22;33708;49.466;11.176;2024-03-22T11:32:29;20.50;1.00
4699;DHT22;33708;49.466;11.176;2024-03-22T11:34:54;20.80;1.00
4699;DHT22;33708;49.466;11.176;2024-03-22T11:37:20;20.80;1.00
4699;DHT22;33708;49.466;11.176;2024-03-22T11:39:45;20.60;1.00
4699;DHT22;33708;49.466;11.176;2024-03-22T11:42:11;20.40;1.00
4699;DHT22;33708;49.466;11.176;2024-03-22T11:44:38;20.90;1.00
4699;DHT22;33708;49.466;11.176;2024-03-22T11:47:05;20.60;1.00
4699;DHT22;33708;49.466;11.176;2024-03-22T11:49:30;20.50;1.00
4699;DHT22;33708;49.466;11.176;2024-03-22T11:51:56;20.20;1.00
4699;DHT22;33708;49.466;11.176;2024-03-22T11:54:23;20.50;1.00
4699;DHT22;33708;49.466;11.176;2024-03-22T11:56:49;22.10;1.00
4699;DHT22;33708;49.466;11.176;2024-03-22T11:59:17;20.30;1.00
4699;DHT22;33708;49.466;11.176;2024-03-22T12:01:44;20.60;1.00
4699;DHT22;33708;49.466;11.176;2024-03-22T12:04:10;20.30;1.00
4699;DHT22;33708;49.466;11.176;2024-03-22T12:06:42;21.00;1.00
4699;DHT22;33708;49.466;11.176;2024-03-22T12:09:08;21.10;1.00
4699;DHT22;33708;49.466;11.176;2024-03-22T12:11:35;20.80;1.00
4699;DHT22;33708;49.466;11.176;2024-03-22T12:14:00;20.70;1.00
4699;DHT22;33708;49.466;11.176;2024-03-22T12:16:26;20.70;1.00
4699;DHT22;33708;49.466;11.176;2024-03-22T12:18:51;20.70;1.00
4699;DHT22;33708;49.466;11.176;2024-03-22T12:21:17;20.90;1.00
4699;DHT22;33708;49.466;11.176;2024-03-22T12:23:42;21.40;1.00
4699;DHT22;33708;49.466;11.176;2024-03-22T12:26:08;21.20;1.00
4699;DHT22;33708;49.466;11.176;2024-03-22T12:28:33;20.90;1.00
4699;DHT22;33708;49.466;11.176;2024-03-22T12:30:59;20.70;1.00
4699;DHT22;33708;49.466;11.176;2024-03-22T12:33:24;20.60;1.00
4699;DHT22;33708;49.466;11.176;2024-03-22T12:35:50;20.50;1.00
4699;DHT22;33708;49.466;11.176;2024-03-22T12:38:16;20.20;1.00
4699;DHT22;33708;49.466;11.176;2024-03-22T12:40:41;20.30;1.00
4699;DHT22;33708;49.466;11.176;2024-03-22T12:43:09;20.10;1.00
4699;DHT22;33708;49.466;11.176;2024-03-22T12:45:35;20.00;1.00
4699;DHT22;33708;49.466;11.176;2024-03-22T12:48:01;19.80;1.00
4699;DHT22;33708;49.466;11.176;2024-03-22T12:50:27;20.10;1.00
4699;DHT22;33708;49.466;11.176;2024-03-22T12:52:53;20.50;1.00
4699;DHT22;33708;49.466;11.176;2024-03-22T12:55:18;20.60;1.00
4699;DHT22;33708;49.466;11.176;2024-03-22T12:57:45;20.50;1.00
4699;DHT22;33708;49.466;11.176;2024-03-22T13:00:10;20.80;1.00
4699;DHT22;33708;49.466;11.176;2024-03-22T13:02:44;20.80;1.00
4699;DHT22;33708;49.466;11.176;2024-03-22T13:05:10;20.60;1.00
4699;DHT22;33708;49.466;11.176;2024-03-22T13:07:36;20.50;1.00
4699;DHT22;33708;49.466;11.176;2024-03-22T13:10:01;20.50;1.00
4699;DHT22;33708;49.466;11.176;2024-03-22T13:12:28;19.90;1.00
4699;DHT22;33708;49.466;11.176;2024-03-22T13:14:56;20.50;1.00
4699;DHT22;33708;49.466;11.176;2024-03-22T13:17:22;20.30;1.00
4699;DHT22;33708;49.466;11.176;2024-03-22T13:19:48;20.20;1.00
4699;DHT22;33708;49.466;11.176;2024-03-22T13:22:14;20.30;1.00
4699;DHT22;33708;49.466;11.176;2024-03-22T13:24:47;20.30;1.00
4699;DHT22;33708;49.466;11.176;2024-03-22T13:27:13;20.50;1.00
4699;DHT22;33708;49.466;11.176;2024-03-22T13:29:40;20.00;1.00
4699;DHT22;33708;49.466;11.176;2024-03-22T13:32:06;20.00;1.00
4699;DHT22;33708;49.466;11.176;2024-03-22T13:34:34;19.40;1.00
4699;DHT22;33708;49.466;11.176;2024-03-22T13:37:00;19.30;1.00
4699;DHT22;33708;49.466;11.176;2024-03-22T13:39:25;19.40;1.00
4699;DHT22;33708;49.466;11.176;2024-03-22T13:41:51;19.60;1.00
4699;DHT22;33708;49.466;11.176;2024-03-22T13:44:16;19.60;1.00
4699;DHT22;33708;49.466;11.176;2024-03-22T13:46:42;19.00;1.00
4699;DHT22;33708;49.466;11.176;2024-03-22T13:49:15;19.00;1.00
4699;DHT22;33708;49.466;11.176;2024-03-22T13:51:44;19.00;1.00
4699;DHT22;33708;49.466;11.176;2024-03-22T13:54:11;18.90;1.00
4699;DHT22;33708;49.466;11.176;2024-03-22T13:56:36;19.00;1.00
4699;DHT22;33708;49.466;11.176;2024-03-22T13:59:03;19.40;1.00
4699;DHT22;33708;49.466;11.176;2024-03-22T14:01:34;20.00;1.00
4699;DHT22;33708;49.466;11.176;2024-03-22T14:04:00;20.20;1.00
4699;DHT22;33708;49.466;11.176;2024-03-22T14:06:25;20.60;1.00
4699;DHT22;33708;49.466;11.176;2024-03-22T14:08:51;20.30;1.00
4699;DHT22;33708;49.466;11.176;2024-03-22T14:11:20;20.40;1.00
4699;DHT22;33708;49.466;11.176;2024-03-22T14:13:45;19.80;1.00
4699;DHT22;33708;49.466;11.176;2024-03-22T14:16:11;20.00;1.00
4699;DHT22;33708;49.466;11.176;2024-03-22T14:18:36;20.30;1.00
4699;DHT22;33708;49.466;11.176;2024-03-22T14:21:02;20.50;1.00
4699;DHT22;33708;49.466;11.176;2024-03-22T14:23:28;20.30;1.00
4699;DHT22;33708;49.466;11.176;2024-03-22T14:25:57;20.00;1.00
4699;DHT22;33708;49.466;11.176;2024-03-22T14:28:22;20.00;1.00
4699;DHT22;33708;49.466;11.176;2024-03-22T14:30:48;19.60;1.00
4699;DHT22;33708;49.466;11.176;2024-03-22T14:33:14;19.80;1.00
4699;DHT22;33708;49.466;11.176;2024-03-22T14:35:39;19.60;1.00
4699;DHT22;33708;49.466;11.176;2024-03-22T14:38:05;19.60;1.00
4699;DHT22;33708;49.466;11.176;2024-03-22T14:40:31;19.10;1.00
4699;DHT22;33708;49.466;11.176;2024-03-22T14:43:03;19.00;1.00
4699;DHT22;33708;49.466;11.176;2024-03-22T14:45:30;19.00;1.00
4699;DHT22;33708;49.466;11.176;2024-03-22T14:47:55;19.10;1.00
4699;DHT22;33708;49.466;11.176;2024-03-22T14:50:21;19.20;1.00
4699;DHT22;33708;49.466;11.176;2024-03-22T14:52:49;19.20;1.00
4699;DHT22;33708;49.466;11.176;2024-03-22T14:55:14;19.20;1.00
4699;DHT22;33708;49.466;11.176;2024-03-22T14:57:40;19.10;1.00
4699;DHT22;33708;49.466;11.176;2024-03-22T15:00:06;19.40;1.00
4699;DHT22;33708;49.466;11.176;2024-03-22T15:02:36;19.50;1.00
4699;DHT22;33708;49.466;11.176;2024-03-22T15:05:02;19.80;1.00
4699;DHT22;33708;49.466;11.176;2024-03-22T15:07:29;19.90;1.00
4699;DHT22;33708;49.466;11.176;2024-03-22T15:09:55;19.80;1.00
4699;DHT22;33708;49.466;11.176;2024-03-22T15:12:21;19.90;1.00
4699;DHT22;33708;49.466;11.176;2024-03-22T15:14:46;19.50;1.00
4699;DHT22;33708;49.466;11.176;2024-03-22T15:17:12;19.30;1.00
4699;DHT22;33708;49.466;11.176;2024-03-22T15:19:41;19.20;1.00
4699;DHT22;33708;49.466;11.176;2024-03-22T15:22:08;19.10;1.00
4699;DHT22;33708;49.466;11.176;2024-03-22T15:24:34;19.00;1.00
4699;DHT22;33708;49.466;11.176;2024-03-22T15:27:02;19.00;1.00
4699;DHT22;33708;49.466;11.176;2024-03-22T15:29:27;18.90;1.00
4699;DHT22;33708;49.466;11.176;2024-03-22T15:31:53;18.70;1.00
4699;DHT22;33708;49.466;11.176;2024-03-22T15:34:18;18.80;1.00
4699;DHT22;33708;49.466;11.176;2024-03-22T15:36:44;18.50;1.00
4699;DHT22;33708;49.466;11.176;2024-03-22T15:39:11;18.50;1.00